createdAt,value
2022-11-21T00:00:26.817Z,112.06
2022-11-21T00:01:35.961Z,111.57
2022-11-21T00:02:45.143Z,114.01
2022-11-21T00:03:54.314Z,112.06
2022-11-21T00:05:03.494Z,114.5
2022-11-21T00:06:12.657Z,112.79
2022-11-21T00:07:21.833Z,113.28
2022-11-21T00:08:31.007Z,114.74
2022-11-21T00:09:40.179Z,111.32
2022-11-21T00:10:49.358Z,114.01
2022-11-21T00:11:58.523Z,114.25
2022-11-21T00:13:07.703Z,114.74
2022-11-21T00:14:16.874Z,113.52
2022-11-21T00:15:25.064Z,112.06
2022-11-21T00:16:33.259Z,112.79
2022-11-21T00:17:42.432Z,112.06
2022-11-21T00:18:51.607Z,110.59
2022-11-21T00:20:00.768Z,111.32
2022-11-21T00:21:09.940Z,109.13
2022-11-21T00:22:19.119Z,109.37
2022-11-21T00:23:27.320Z,109.13
2022-11-21T00:24:35.508Z,109.37
2022-11-21T00:25:44.680Z,107.91
2022-11-21T00:26:53.855Z,108.64
2022-11-21T00:28:03.004Z,107.91
2022-11-21T00:29:12.202Z,105.95
2022-11-21T00:30:21.364Z,104
2022-11-21T00:31:30.546Z,105.46
2022-11-21T00:32:39.709Z,106.68
2022-11-21T00:33:48.882Z,105.71
2022-11-21T00:34:58.121Z,106.68
2022-11-21T00:36:07.226Z,106.93
2022-11-21T00:37:16.409Z,106.44
2022-11-21T00:38:25.578Z,109.13
2022-11-21T00:39:33.760Z,106.68
2022-11-21T00:40:42.942Z,107.66
2022-11-21T00:41:52.114Z,106.44
2022-11-21T00:43:01.299Z,104.73
2022-11-21T00:44:10.489Z,107.17
2022-11-21T00:45:19.642Z,105.46
2022-11-21T00:46:28.835Z,106.44
2022-11-21T00:47:37.007Z,106.93
2022-11-21T00:48:46.169Z,105.95
2022-11-21T00:49:55.360Z,107.17
2022-11-21T00:51:03.547Z,105.22
2022-11-21T00:52:11.732Z,106.2
2022-11-21T00:53:20.912Z,105.95
2022-11-21T00:54:30.079Z,104.24
2022-11-21T00:56:48.431Z,107.66
2022-11-21T00:57:57.600Z,106.93
2022-11-21T00:59:06.765Z,105.46
2022-11-21T01:00:15.949Z,107.42
2022-11-21T01:01:25.117Z,106.44
2022-11-21T01:02:34.292Z,105.22
2022-11-21T01:03:43.467Z,105.22
2022-11-21T01:04:52.635Z,106.2
2022-11-21T01:06:01.808Z,106.68
2022-11-21T01:07:09.997Z,106.68
2022-11-21T01:08:19.174Z,106.2
2022-11-21T01:09:28.353Z,104.73
2022-11-21T01:10:37.538Z,105.46
2022-11-21T01:11:46.690Z,104.98
2022-11-21T01:12:55.865Z,105.46
2022-11-21T01:14:05.024Z,108.88
2022-11-21T01:15:14.218Z,106.68
2022-11-21T01:16:23.382Z,105.46
2022-11-21T01:17:32.563Z,105.46
2022-11-21T01:18:41.734Z,107.91
2022-11-21T01:19:50.901Z,106.2
2022-11-21T01:21:00.152Z,103.75
2022-11-21T01:22:08.373Z,105.95
2022-11-21T01:23:17.437Z,107.17
2022-11-21T01:24:26.602Z,105.22
2022-11-21T01:25:35.784Z,105.71
2022-11-21T01:26:44.962Z,105.71
2022-11-21T01:27:54.130Z,104.73
2022-11-21T01:29:03.300Z,106.68
2022-11-21T01:30:12.481Z,104.73
2022-11-21T01:31:21.644Z,106.2
2022-11-21T01:32:30.822Z,107.17
2022-11-21T01:33:39.994Z,106.2
2022-11-21T01:34:49.185Z,105.46
2022-11-21T01:35:58.333Z,106.93
2022-11-21T01:37:06.529Z,107.17
2022-11-21T01:38:15.687Z,106.93
2022-11-21T01:40:34.068Z,107.17
2022-11-21T01:41:43.219Z,107.17
2022-11-21T01:42:52.395Z,107.17
2022-11-21T01:44:01.569Z,106.44
2022-11-21T01:45:10.748Z,107.91
2022-11-21T01:46:19.920Z,107.17
2022-11-21T01:47:29.095Z,107.91
2022-11-21T01:48:38.261Z,107.42
2022-11-21T01:49:47.445Z,107.42
2022-11-21T01:50:56.675Z,104.98
2022-11-21T01:52:04.797Z,108.39
2022-11-21T01:53:13.969Z,107.42
2022-11-21T01:54:23.137Z,106.68
2022-11-21T01:55:32.316Z,106.68
2022-11-21T01:57:50.657Z,104.73
2022-11-21T01:58:59.832Z,106.68
2022-11-21T02:00:08.996Z,104
2022-11-21T02:01:18.183Z,103.51
2022-11-21T02:02:27.356Z,104.73
2022-11-21T02:03:36.525Z,107.17
2022-11-21T02:04:45.702Z,105.95
2022-11-21T02:05:54.870Z,104.98
2022-11-21T02:07:03.064Z,104.98
2022-11-21T02:09:21.404Z,101.07
2022-11-21T02:10:30.579Z,95.94
2022-11-21T02:11:39.751Z,93.01
2022-11-21T02:12:48.920Z,92.52
2022-11-21T02:13:58.101Z,87.64
2022-11-21T02:15:07.272Z,86.18
2022-11-21T02:16:16.465Z,86.66
2022-11-21T02:17:25.613Z,86.91
2022-11-21T02:18:34.811Z,86.18
2022-11-21T02:19:43.964Z,87.64
2022-11-21T02:20:53.139Z,87.15
2022-11-21T02:22:01.322Z,86.91
2022-11-21T02:23:10.491Z,86.18
2022-11-21T02:24:19.668Z,88.37
2022-11-21T02:25:28.863Z,86.42
2022-11-21T02:26:38.026Z,86.18
2022-11-21T02:27:47.195Z,86.42
2022-11-21T02:30:05.537Z,87.4
2022-11-21T02:31:14.716Z,88.62
2022-11-21T02:32:23.880Z,91.3
2022-11-21T02:33:33.072Z,92.04
2022-11-21T02:34:42.214Z,93.5
2022-11-21T02:35:51.403Z,96.43
2022-11-21T02:36:59.597Z,101.07
2022-11-21T02:38:08.769Z,98.63
2022-11-21T02:39:17.946Z,104
2022-11-21T02:40:27.117Z,100.34
2022-11-21T02:41:36.292Z,105.22
2022-11-21T02:42:45.463Z,101.07
2022-11-21T02:43:54.618Z,98.38
2022-11-21T02:45:03.811Z,97.41
2022-11-21T02:46:12.980Z,95.21
2022-11-21T02:47:22.155Z,96.92
2022-11-21T02:48:31.336Z,96.92
2022-11-21T02:49:40.508Z,97.9
2022-11-21T02:50:49.675Z,95.7
2022-11-21T02:51:57.855Z,96.43
2022-11-21T02:53:07.045Z,97.16
2022-11-21T02:55:25.381Z,100.58
2022-11-21T02:56:34.549Z,96.92
2022-11-21T02:57:43.726Z,97.9
2022-11-21T02:58:52.902Z,97.41
2022-11-21T03:00:02.074Z,96.92
2022-11-21T03:01:11.289Z,96.92
2022-11-21T03:02:20.417Z,100.34
2022-11-21T03:03:29.598Z,98.14
2022-11-21T03:04:38.777Z,96.67
2022-11-21T03:05:47.940Z,95.94
2022-11-21T03:06:56.121Z,96.92
2022-11-21T03:08:05.306Z,98.14
2022-11-21T03:09:14.474Z,99.85
2022-11-21T03:10:23.653Z,98.63
2022-11-21T03:11:32.815Z,101.8
2022-11-21T03:12:41.989Z,98.38
2022-11-21T03:13:51.171Z,101.07
2022-11-21T03:15:00.508Z,101.07
2022-11-21T03:16:09.532Z,98.38
2022-11-21T03:17:18.689Z,98.38
2022-11-21T03:18:27.870Z,100.09
2022-11-21T03:19:37.020Z,97.41
2022-11-21T03:20:46.208Z,97.16
2022-11-21T03:21:55.374Z,97.65
2022-11-21T03:23:03.569Z,96.19
2022-11-21T03:24:12.739Z,96.43
2022-11-21T03:25:21.912Z,96.43
2022-11-21T03:26:31.095Z,94.72
2022-11-21T03:27:40.267Z,96.43
2022-11-21T03:28:49.432Z,96.43
2022-11-21T03:29:58.601Z,98.87
2022-11-21T03:31:07.777Z,94.23
2022-11-21T03:32:16.945Z,95.21
2022-11-21T03:33:26.135Z,93.26
2022-11-21T03:34:35.313Z,95.7
2022-11-21T03:36:53.636Z,94.97
2022-11-21T03:38:01.836Z,97.16
2022-11-21T03:39:11.000Z,98.14
2022-11-21T03:40:20.177Z,101.8
2022-11-21T03:41:29.353Z,99.12
2022-11-21T03:42:38.512Z,101.8
2022-11-21T03:44:56.858Z,100.83
2022-11-21T03:47:15.217Z,97.41
2022-11-21T03:48:23.398Z,96.92
2022-11-21T03:49:31.594Z,97.65
2022-11-21T03:50:40.763Z,97.9
2022-11-21T03:52:58.130Z,97.9
2022-11-21T03:54:06.327Z,102.29
2022-11-21T03:55:15.502Z,98.38
2022-11-21T03:56:24.675Z,97.9
2022-11-21T03:57:33.856Z,102.53
2022-11-21T03:58:43.023Z,101.31
2022-11-21T03:59:52.198Z,100.58
2022-11-21T04:01:01.377Z,101.31
2022-11-21T04:02:10.541Z,100.34
2022-11-21T04:03:19.716Z,101.31
2022-11-21T04:04:28.903Z,99.85
2022-11-21T04:05:38.066Z,100.09
2022-11-21T04:06:47.232Z,101.31
2022-11-21T04:07:56.414Z,99.85
2022-11-21T04:09:04.593Z,102.53
2022-11-21T04:10:13.801Z,99.85
2022-11-21T04:11:22.959Z,101.31
2022-11-21T04:12:32.146Z,100.09
2022-11-21T04:13:40.349Z,101.07
2022-11-21T04:14:49.500Z,101.8
2022-11-21T04:15:57.709Z,100.83
2022-11-21T04:17:06.872Z,103.75
2022-11-21T04:18:16.077Z,101.31
2022-11-21T04:19:25.218Z,101.8
2022-11-21T04:20:34.393Z,100.58
2022-11-21T04:21:43.576Z,100.58
2022-11-21T04:22:52.746Z,101.07
2022-11-21T04:24:01.908Z,99.85
2022-11-21T04:25:11.081Z,98.63
2022-11-21T04:26:20.266Z,101.07
2022-11-21T04:28:38.614Z,100.83
2022-11-21T04:29:47.782Z,102.53
2022-11-21T04:30:55.963Z,99.12
2022-11-21T04:32:05.145Z,101.8
2022-11-21T04:34:23.491Z,99.12
2022-11-21T04:35:31.689Z,98.14
2022-11-21T04:36:39.867Z,97.65
2022-11-21T04:37:49.037Z,98.63
2022-11-21T04:38:58.216Z,96.67
2022-11-21T04:40:07.403Z,95.94
2022-11-21T04:41:16.569Z,93.5
2022-11-21T04:42:25.740Z,95.7
2022-11-21T04:43:34.905Z,96.67
2022-11-21T04:44:44.090Z,97.16
2022-11-21T04:45:53.263Z,95.7
2022-11-21T04:47:02.433Z,98.87
2022-11-21T04:48:10.630Z,96.92
2022-11-21T04:50:27.986Z,96.92
2022-11-21T04:51:37.152Z,96.92
2022-11-21T04:52:46.328Z,93.26
2022-11-21T04:55:04.675Z,93.5
2022-11-21T04:57:23.069Z,94.23
2022-11-21T04:58:32.226Z,94.48
2022-11-21T04:59:41.370Z,96.67
2022-11-21T05:00:50.542Z,97.16
2022-11-21T05:01:59.721Z,96.19
2022-11-21T05:03:08.924Z,98.87
2022-11-21T05:04:17.097Z,97.9
2022-11-21T05:05:25.274Z,96.19
2022-11-21T05:06:34.457Z,99.6
2022-11-21T05:07:43.606Z,96.92
2022-11-21T05:08:52.796Z,99.6
2022-11-21T05:10:01.959Z,96.19
2022-11-21T05:11:11.138Z,99.12
2022-11-21T05:12:20.316Z,101.56
2022-11-21T05:13:29.490Z,101.07
2022-11-21T05:14:38.660Z,100.09
2022-11-21T05:15:47.849Z,99.6
2022-11-21T05:16:56.028Z,98.63
2022-11-21T05:18:04.207Z,102.78
2022-11-21T05:19:13.394Z,101.07
2022-11-21T05:20:22.571Z,99.12
2022-11-21T05:21:31.732Z,102.29
2022-11-21T05:22:40.949Z,103.51
2022-11-21T05:23:50.098Z,101.07
2022-11-21T05:24:59.254Z,101.31
2022-11-21T05:26:08.435Z,103.51
2022-11-21T05:27:17.594Z,97.16
2022-11-21T05:28:26.775Z,97.16
2022-11-21T05:29:35.953Z,100.58
2022-11-21T05:30:45.120Z,97.9
2022-11-21T05:31:54.291Z,103.27
2022-11-21T05:33:02.488Z,99.36
2022-11-21T05:34:11.657Z,103.27
2022-11-21T05:35:20.836Z,101.56
2022-11-21T05:36:30.004Z,103.27
2022-11-21T05:37:39.180Z,103.02
2022-11-21T05:38:48.343Z,101.8
2022-11-21T05:41:06.696Z,100.58
2022-11-21T05:42:14.895Z,97.41
2022-11-21T05:43:23.135Z,94.97
2022-11-21T05:44:32.250Z,97.41
2022-11-21T05:45:40.462Z,100.09
2022-11-21T05:46:48.642Z,96.19
2022-11-21T05:47:57.814Z,99.85
2022-11-21T05:49:06.989Z,96.92
2022-11-21T05:50:16.158Z,99.12
2022-11-21T05:51:25.327Z,98.14
2022-11-21T05:52:34.505Z,95.94
2022-11-21T05:53:43.682Z,96.19
2022-11-21T05:54:52.848Z,96.19
2022-11-21T05:56:02.034Z,94.23
2022-11-21T05:57:11.204Z,104
2022-11-21T05:58:20.384Z,95.94
2022-11-21T05:59:29.546Z,104
2022-11-21T06:00:38.713Z,103.75
2022-11-21T06:01:46.924Z,102.53
2022-11-21T06:02:56.078Z,94.97
2022-11-21T06:04:05.317Z,96.19
2022-11-21T06:05:14.423Z,99.85
2022-11-21T06:06:23.605Z,100.58
2022-11-21T06:07:32.772Z,111.57
2022-11-21T06:08:41.948Z,101.07
2022-11-21T06:09:50.180Z,101.56
2022-11-21T06:10:58.330Z,103.27
2022-11-21T06:12:07.500Z,109.61
2022-11-21T06:13:16.698Z,102.05
2022-11-21T06:14:25.860Z,101.56
2022-11-21T06:15:34.065Z,99.85
2022-11-21T06:16:42.238Z,100.58
2022-11-21T06:17:51.410Z,101.31
2022-11-21T06:19:00.582Z,102.05
2022-11-21T06:20:09.745Z,111.32
2022-11-21T06:21:18.936Z,102.78
2022-11-21T06:22:28.096Z,102.53
2022-11-21T06:23:37.276Z,102.53
2022-11-21T06:24:46.442Z,101.8
2022-11-21T06:25:55.678Z,102.29
2022-11-21T06:27:04.796Z,102.05
2022-11-21T06:28:13.967Z,102.05
2022-11-21T06:29:23.170Z,100.58
2022-11-21T06:30:32.359Z,102.05
2022-11-21T06:31:40.629Z,100.83
2022-11-21T06:32:49.676Z,117.91
2022-11-21T06:33:58.842Z,101.56
2022-11-21T06:35:08.041Z,102.53
2022-11-21T06:36:17.197Z,103.75
2022-11-21T06:37:26.368Z,106.44
2022-11-21T06:38:35.598Z,103.75
2022-11-21T06:39:43.743Z,102.53
2022-11-21T06:40:51.920Z,104
2022-11-21T06:42:00.123Z,117.18
2022-11-21T06:43:08.325Z,103.02
2022-11-21T06:44:17.575Z,101.07
2022-11-21T06:45:26.653Z,101.07
2022-11-21T06:46:35.835Z,97.65
2022-11-21T06:47:45.013Z,100.83
2022-11-21T06:48:54.165Z,101.56
2022-11-21T06:50:03.341Z,104.49
2022-11-21T06:51:12.515Z,102.53
2022-11-21T06:52:21.704Z,100.58
2022-11-21T06:53:30.858Z,99.85
2022-11-21T06:54:40.049Z,118.16
2022-11-21T06:55:49.214Z,105.46
2022-11-21T06:56:58.389Z,114.5
2022-11-21T06:58:06.571Z,110.1
2022-11-21T06:59:15.769Z,111.57
2022-11-21T07:00:24.932Z,110.59
2022-11-21T07:01:34.100Z,113.52
2022-11-21T07:02:43.297Z,113.52
2022-11-21T07:03:52.452Z,113.28
2022-11-21T07:05:01.622Z,110.1
2022-11-21T07:06:10.787Z,113.76
2022-11-21T07:07:18.988Z,111.32
2022-11-21T07:09:36.344Z,112.06
2022-11-21T07:10:45.512Z,110.1
2022-11-21T07:11:54.692Z,109.86
2022-11-21T07:15:21.228Z,109.13
2022-11-21T07:16:29.427Z,113.52
2022-11-21T07:17:37.649Z,108.88
2022-11-21T07:18:46.787Z,113.52
2022-11-21T07:19:55.962Z,114.01
2022-11-21T07:21:05.140Z,110.83
2022-11-21T07:22:14.313Z,115.96
2022-11-21T07:23:23.491Z,115.23
2022-11-21T07:24:32.646Z,115.96
2022-11-21T07:25:41.828Z,128.17
2022-11-21T07:26:50.999Z,113.28
2022-11-21T07:28:00.169Z,110.1
2022-11-21T07:29:09.351Z,114.99
2022-11-21T07:30:18.525Z,112.54
2022-11-21T07:31:27.704Z,114.74
2022-11-21T07:32:35.891Z,117.43
2022-11-21T07:33:45.082Z,112.79
2022-11-21T07:34:54.222Z,114.99
2022-11-21T07:36:03.400Z,115.72
2022-11-21T07:37:12.571Z,119.38
2022-11-21T07:38:21.755Z,110.59
2022-11-21T07:39:30.914Z,116.69
2022-11-21T07:40:39.119Z,117.43
2022-11-21T07:41:47.315Z,129.63
2022-11-21T07:42:56.494Z,130.12
2022-11-21T07:44:04.663Z,109.61
2022-11-21T07:45:12.871Z,111.32
2022-11-21T07:46:22.031Z,115.47
2022-11-21T07:47:31.209Z,111.32
2022-11-21T07:48:40.381Z,114.5
2022-11-21T07:49:49.561Z,110.35
2022-11-21T07:50:58.734Z,119.38
2022-11-21T07:52:07.904Z,109.86
2022-11-21T07:53:17.092Z,116.69
2022-11-21T07:54:26.245Z,111.81
2022-11-21T07:55:35.420Z,117.43
2022-11-21T07:56:44.579Z,94.48
2022-11-21T07:57:53.765Z,107.66
2022-11-21T07:59:02.983Z,107.91
2022-11-21T08:00:11.222Z,107.17
2022-11-21T08:01:20.445Z,115.47
2022-11-21T08:02:29.487Z,110.59
2022-11-21T08:03:38.648Z,114.01
2022-11-21T08:04:47.829Z,113.76
2022-11-21T08:05:57.120Z,111.81
2022-11-21T08:07:06.162Z,112.79
2022-11-21T08:08:15.395Z,117.18
2022-11-21T08:09:24.514Z,125.24
2022-11-21T08:10:33.672Z,110.35
2022-11-21T08:11:42.856Z,110.59
2022-11-21T08:12:52.037Z,111.81
2022-11-21T08:14:01.277Z,118.4
2022-11-21T08:15:09.400Z,117.43
2022-11-21T08:16:18.593Z,113.52
2022-11-21T08:17:27.738Z,116.69
2022-11-21T08:18:36.919Z,112.54
2022-11-21T08:19:46.088Z,109.37
2022-11-21T08:20:55.264Z,117.91
2022-11-21T08:22:04.427Z,121.33
2022-11-21T08:23:13.608Z,108.88
2022-11-21T08:24:22.780Z,107.91
2022-11-21T08:25:30.984Z,111.57
2022-11-21T08:27:49.313Z,111.57
2022-11-21T08:28:57.501Z,110.59
2022-11-21T08:30:06.686Z,119.62
2022-11-21T08:31:15.855Z,110.59
2022-11-21T08:32:25.020Z,112.3
2022-11-21T08:33:34.198Z,109.86
2022-11-21T08:34:43.379Z,113.28
2022-11-21T08:35:52.530Z,110.59
2022-11-21T08:37:01.719Z,110.59
2022-11-21T08:38:10.926Z,126.22
2022-11-21T08:39:20.068Z,120.11
2022-11-21T08:40:29.249Z,107.66
2022-11-21T08:41:38.416Z,108.88
2022-11-21T08:42:47.589Z,108.15
2022-11-21T08:43:55.777Z,113.03
2022-11-21T08:45:04.946Z,117.91
2022-11-21T08:46:14.124Z,107.91
2022-11-21T08:47:23.421Z,111.32
2022-11-21T08:48:32.512Z,109.13
2022-11-21T08:49:41.632Z,108.64
2022-11-21T08:50:50.801Z,109.86
2022-11-21T08:51:59.989Z,108.88
2022-11-21T08:53:09.145Z,108.64
2022-11-21T08:54:18.349Z,106.68
2022-11-21T08:55:27.510Z,108.64
2022-11-21T08:56:36.682Z,108.64
2022-11-21T08:57:45.856Z,108.88
2022-11-21T08:58:54.042Z,115.72
2022-11-21T09:00:03.214Z,109.61
2022-11-21T09:01:12.393Z,108.64
2022-11-21T09:02:21.659Z,109.61
2022-11-21T09:03:30.784Z,109.37
2022-11-21T09:04:39.915Z,108.88
2022-11-21T09:05:49.094Z,109.61
2022-11-21T09:06:58.264Z,107.66
2022-11-21T09:08:07.443Z,109.13
2022-11-21T09:09:16.650Z,112.79
2022-11-21T09:10:25.767Z,108.64
2022-11-21T09:11:34.939Z,109.86
2022-11-21T09:12:44.121Z,109.13
2022-11-21T09:13:52.311Z,108.88
2022-11-21T09:15:01.506Z,108.64
2022-11-21T09:16:10.744Z,108.39
2022-11-21T09:17:19.894Z,107.91
2022-11-21T09:18:28.999Z,106.68
2022-11-21T09:19:38.170Z,106.68
2022-11-21T09:20:47.340Z,108.88
2022-11-21T09:21:56.569Z,106.44
2022-11-21T09:23:05.691Z,107.66
2022-11-21T09:24:14.915Z,107.17
2022-11-21T09:25:24.031Z,107.91
2022-11-21T09:28:51.586Z,106.68
2022-11-21T09:32:18.392Z,107.91
2022-11-21T09:33:26.324Z,108.15
2022-11-21T09:34:34.476Z,108.39
2022-11-21T09:35:43.644Z,107.91
2022-11-21T09:38:02.004Z,107.91
2022-11-21T09:39:11.162Z,114.01
2022-11-21T09:40:20.350Z,109.13
2022-11-21T09:41:29.501Z,107.17
2022-11-21T09:42:38.747Z,124.26
2022-11-21T09:43:47.859Z,110.59
2022-11-21T09:44:57.024Z,108.88
2022-11-21T09:46:06.302Z,107.66
2022-11-21T09:47:15.430Z,108.88
2022-11-21T09:48:24.565Z,108.64
2022-11-21T09:49:32.751Z,114.01
2022-11-21T09:50:40.992Z,128.66
2022-11-21T09:51:50.142Z,125.48
2022-11-21T09:52:59.320Z,138.18
2022-11-21T09:54:08.462Z,124.26
2022-11-21T09:55:17.633Z,111.32
2022-11-21T09:56:26.829Z,127.68
2022-11-21T09:57:35.965Z,124.26
2022-11-21T09:58:45.140Z,122.07
2022-11-21T09:59:54.308Z,123.04
2022-11-21T10:01:03.486Z,126.7
2022-11-21T10:02:11.691Z,109.61
2022-11-21T10:03:19.938Z,117.43
2022-11-21T10:04:29.042Z,118.16
2022-11-21T10:05:38.220Z,126.95
2022-11-21T10:06:47.383Z,120.84
2022-11-21T10:07:56.577Z,124.02
2022-11-21T10:09:05.742Z,115.47
2022-11-21T10:10:14.903Z,114.01
2022-11-21T10:11:24.118Z,108.88
2022-11-21T10:12:33.240Z,118.65
2022-11-21T10:13:42.502Z,128.17
2022-11-21T10:14:51.625Z,117.43
2022-11-21T10:16:00.791Z,123.04
2022-11-21T10:17:09.948Z,109.61
2022-11-21T10:18:18.141Z,115.47
2022-11-21T10:19:27.312Z,120.11
2022-11-21T10:20:36.542Z,114.5
2022-11-21T10:21:45.651Z,124.26
2022-11-21T10:22:54.825Z,117.18
2022-11-21T10:24:03.999Z,118.89
2022-11-21T10:25:13.212Z,111.32
2022-11-21T10:26:21.395Z,116.45
2022-11-21T10:27:29.557Z,120.6
2022-11-21T10:28:37.748Z,117.67
2022-11-21T10:29:45.943Z,127.19
2022-11-21T10:30:55.238Z,116.69
2022-11-21T10:32:04.349Z,113.76
2022-11-21T10:33:13.460Z,114.99
2022-11-21T10:34:22.621Z,115.72
2022-11-21T10:35:31.817Z,117.43
2022-11-21T10:36:41.025Z,122.31
2022-11-21T10:37:50.140Z,118.89
2022-11-21T10:38:59.499Z,119.62
2022-11-21T10:40:08.492Z,116.45
2022-11-21T10:41:17.668Z,120.6
2022-11-21T10:42:26.875Z,122.8
2022-11-21T10:43:36.018Z,117.91
2022-11-21T10:44:44.207Z,117.18
2022-11-21T10:45:53.377Z,115.23
2022-11-21T10:47:02.553Z,118.65
2022-11-21T10:48:11.722Z,118.16
2022-11-21T10:49:20.989Z,116.94
2022-11-21T10:50:30.071Z,118.16
2022-11-21T10:51:39.237Z,125.73
2022-11-21T10:53:56.653Z,119.62
2022-11-21T10:55:04.851Z,115.23
2022-11-21T10:56:13.079Z,115.23
2022-11-21T10:57:22.169Z,114.5
2022-11-21T10:58:31.337Z,114.99
2022-11-21T10:59:39.560Z,119.14
2022-11-21T11:00:47.736Z,117.91
2022-11-21T11:01:56.905Z,115.47
2022-11-21T11:03:06.107Z,112.79
2022-11-21T11:04:15.247Z,113.52
2022-11-21T11:05:24.424Z,114.25
2022-11-21T11:06:33.595Z,121.82
2022-11-21T11:07:42.823Z,135.49
2022-11-21T11:08:51.928Z,110.83
2022-11-21T11:10:01.115Z,111.32
2022-11-21T11:11:10.351Z,113.03
2022-11-21T11:12:19.451Z,115.72
2022-11-21T11:13:28.625Z,116.94
2022-11-21T11:14:37.823Z,122.55
2022-11-21T11:15:45.977Z,114.74
2022-11-21T11:16:55.213Z,109.61
2022-11-21T11:18:04.329Z,115.96
2022-11-21T11:19:13.501Z,116.69
2022-11-21T11:20:22.668Z,115.47
2022-11-21T11:21:31.865Z,123.29
2022-11-21T11:22:41.014Z,121.58
2022-11-21T11:23:50.218Z,111.32
2022-11-21T11:24:59.389Z,115.96
2022-11-21T11:26:08.551Z,117.18
2022-11-21T11:27:17.708Z,115.23
2022-11-21T11:28:26.885Z,113.76
2022-11-21T11:29:36.149Z,112.06
2022-11-21T11:30:45.263Z,114.5
2022-11-21T11:31:53.428Z,112.3
2022-11-21T11:33:02.602Z,115.96
2022-11-21T11:34:11.772Z,111.57
2022-11-21T11:35:21.079Z,115.72
2022-11-21T11:36:29.137Z,113.52
2022-11-21T11:37:38.320Z,110.83
2022-11-21T11:38:47.491Z,111.57
2022-11-21T11:39:56.705Z,113.52
2022-11-21T11:41:05.874Z,114.74
2022-11-21T11:42:14.999Z,111.32
2022-11-21T11:43:24.171Z,115.23
2022-11-21T11:44:33.348Z,112.54
2022-11-21T11:45:42.535Z,111.32
2022-11-21T11:46:51.690Z,110.59
2022-11-21T11:48:00.894Z,115.23
2022-11-21T11:49:10.054Z,115.47
2022-11-21T11:50:19.212Z,115.47
2022-11-21T11:51:27.411Z,113.03
2022-11-21T11:52:36.582Z,110.59
2022-11-21T11:53:46.726Z,113.52
2022-11-21T11:54:54.962Z,113.52
2022-11-21T11:56:04.174Z,110.83
2022-11-21T11:57:13.353Z,110.83
2022-11-21T11:58:22.515Z,114.01
2022-11-21T11:59:31.619Z,107.91
2022-11-21T12:00:40.788Z,109.61
2022-11-21T12:01:49.954Z,111.81
2022-11-21T12:02:59.149Z,110.83
2022-11-21T12:04:08.302Z,108.64
2022-11-21T12:05:17.522Z,109.13
2022-11-21T12:06:25.665Z,108.15
2022-11-21T12:07:34.899Z,108.39
2022-11-21T12:08:44.016Z,108.15
2022-11-21T12:09:53.198Z,108.39
2022-11-21T12:11:02.359Z,107.91
2022-11-21T12:12:10.552Z,111.32
2022-11-21T12:13:18.759Z,107.42
2022-11-21T12:14:27.915Z,109.86
2022-11-21T12:15:37.190Z,112.06
2022-11-21T12:16:46.257Z,131.83
2022-11-21T12:17:54.447Z,109.61
2022-11-21T12:19:02.645Z,111.32
2022-11-21T12:20:11.907Z,110.59
2022-11-21T12:21:21.050Z,113.76
2022-11-21T12:22:30.154Z,111.08
2022-11-21T12:23:39.328Z,110.59
2022-11-21T12:24:48.509Z,108.88
2022-11-21T12:25:57.676Z,109.13
2022-11-21T12:27:06.845Z,116.45
2022-11-21T12:28:16.144Z,112.54
2022-11-21T12:29:25.239Z,109.61
2022-11-21T12:30:34.368Z,119.38
2022-11-21T12:31:43.539Z,109.86
2022-11-21T12:32:52.812Z,120.36
2022-11-21T12:34:00.915Z,110.1
2022-11-21T12:35:10.076Z,115.72
2022-11-21T12:36:19.337Z,116.94
2022-11-21T12:37:28.416Z,110.35
2022-11-21T12:38:37.603Z,109.13
2022-11-21T12:39:46.768Z,119.87
2022-11-21T12:40:55.980Z,111.08
2022-11-21T12:42:04.196Z,116.94
2022-11-21T12:43:12.391Z,111.81
2022-11-21T12:44:20.533Z,109.86
2022-11-21T12:45:28.706Z,110.1
2022-11-21T12:46:37.915Z,114.5
2022-11-21T12:47:47.080Z,109.86
2022-11-21T12:48:56.232Z,109.13
2022-11-21T12:50:05.392Z,108.64
2022-11-21T12:51:14.611Z,112.06
2022-11-21T12:52:23.742Z,112.54
2022-11-21T12:53:32.919Z,117.67
2022-11-21T12:54:42.091Z,107.42
2022-11-21T12:55:51.252Z,109.61
2022-11-21T12:57:00.445Z,114.74
2022-11-21T12:58:09.603Z,111.81
2022-11-21T12:59:18.771Z,109.61
2022-11-21T13:00:26.988Z,109.86
2022-11-21T13:01:36.141Z,109.61
2022-11-21T13:02:45.303Z,108.15
2022-11-21T13:03:54.476Z,113.28
2022-11-21T13:05:03.666Z,111.81
2022-11-21T13:06:12.829Z,113.52
2022-11-21T13:07:22.079Z,109.86
2022-11-21T13:08:30.339Z,119.87
2022-11-21T13:09:38.384Z,110.59
2022-11-21T13:10:47.575Z,108.39
2022-11-21T13:11:56.761Z,115.23
2022-11-21T13:13:05.978Z,118.4
2022-11-21T13:14:15.079Z,123.53
2022-11-21T13:15:23.280Z,107.91
2022-11-21T13:16:31.473Z,109.86
2022-11-21T13:17:40.653Z,110.83
2022-11-21T13:18:49.827Z,106.93
2022-11-21T13:19:59.027Z,119.87
2022-11-21T13:21:08.193Z,121.82
2022-11-21T13:22:17.323Z,124.75
2022-11-21T13:23:26.496Z,131.1
2022-11-21T13:24:35.673Z,128.41
2022-11-21T13:25:44.855Z,120.6
2022-11-21T13:26:54.068Z,131.1
2022-11-21T13:28:04.169Z,118.89
2022-11-21T13:29:12.381Z,115.72
2022-11-21T13:30:21.572Z,115.23
2022-11-21T13:31:29.850Z,114.5
2022-11-21T13:32:38.926Z,106.68
2022-11-21T13:33:48.099Z,106.44
2022-11-21T13:34:57.271Z,105.95
2022-11-21T13:36:06.451Z,111.08
2022-11-21T13:37:15.598Z,121.33
2022-11-21T13:38:24.778Z,107.91
2022-11-21T13:39:33.937Z,112.54
2022-11-21T13:40:43.114Z,106.2
2022-11-21T13:41:52.279Z,107.91
2022-11-21T13:43:01.462Z,113.03
2022-11-21T13:44:10.625Z,110.59
2022-11-21T13:45:19.794Z,123.77
2022-11-21T13:46:28.001Z,129.63
2022-11-21T13:47:36.188Z,115.72
2022-11-21T13:48:44.525Z,118.65
2022-11-21T13:49:52.560Z,112.06
2022-11-21T13:51:01.755Z,115.96
2022-11-21T13:52:10.916Z,112.54
2022-11-21T13:53:20.141Z,109.86
2022-11-21T13:54:29.267Z,109.13
2022-11-21T13:55:38.427Z,110.1
2022-11-21T13:56:47.625Z,110.59
2022-11-21T13:57:56.776Z,108.64
2022-11-21T13:59:05.946Z,108.39
2022-11-21T14:00:15.121Z,107.91
2022-11-21T14:01:24.292Z,108.88
2022-11-21T14:02:33.460Z,110.83
2022-11-21T14:03:42.638Z,108.64
2022-11-21T14:04:50.923Z,111.32
2022-11-21T14:05:59.994Z,109.13
2022-11-21T14:07:09.180Z,110.1
2022-11-21T14:08:18.362Z,119.62
2022-11-21T14:09:27.523Z,109.86
2022-11-21T14:10:36.721Z,106.68
2022-11-21T14:11:45.951Z,109.13
2022-11-21T14:12:54.092Z,110.83
2022-11-21T14:14:02.245Z,108.64
2022-11-21T14:15:11.429Z,116.21
2022-11-21T14:16:20.652Z,111.57
2022-11-21T14:17:28.793Z,107.91
2022-11-21T14:18:36.980Z,109.13
2022-11-21T14:19:46.146Z,106.93
2022-11-21T14:20:55.361Z,107.66
2022-11-21T14:22:04.566Z,109.86
2022-11-21T14:23:13.724Z,115.23
2022-11-21T14:24:22.845Z,109.13
2022-11-21T14:25:32.127Z,115.23
2022-11-21T14:26:41.249Z,108.15
2022-11-21T14:27:50.515Z,126.46
2022-11-21T14:28:59.647Z,109.61
2022-11-21T14:30:08.861Z,115.96
2022-11-21T14:31:17.906Z,110.35
2022-11-21T14:32:27.157Z,111.08
2022-11-21T14:33:35.418Z,110.59
2022-11-21T14:34:44.583Z,112.06
2022-11-21T14:35:53.584Z,112.79
2022-11-21T14:37:02.876Z,128.17
2022-11-21T14:38:12.101Z,112.06
2022-11-21T14:39:21.227Z,111.32
2022-11-21T14:40:30.493Z,113.76
2022-11-21T14:41:39.700Z,112.54
2022-11-21T14:42:48.797Z,111.81
2022-11-21T14:43:57.949Z,110.83
2022-11-21T14:45:06.957Z,111.32
2022-11-21T14:46:16.241Z,113.03
2022-11-21T14:47:25.464Z,128.66
2022-11-21T14:48:33.670Z,110.35
2022-11-21T14:49:42.832Z,113.76
2022-11-21T14:50:51.895Z,111.57
2022-11-21T14:52:01.014Z,110.59
2022-11-21T14:53:10.351Z,109.61
2022-11-21T14:54:19.520Z,112.54
2022-11-21T14:55:28.680Z,108.64
2022-11-21T14:56:37.719Z,112.3
2022-11-21T14:57:46.990Z,107.91
2022-11-21T14:58:55.075Z,110.35